createdAt,value
2023-05-01T00:02:52.936Z,100575.66
2023-05-01T00:06:08.254Z,100571.84
2023-05-01T00:09:11.002Z,100564.31
2023-05-01T00:12:14.140Z,100563.06
2023-05-01T00:15:17.382Z,100561.97
2023-05-01T00:18:20.377Z,100564.62
2023-05-01T00:21:23.257Z,100564.94
2023-05-01T00:24:26.573Z,100564.78
2023-05-01T00:27:29.250Z,100559.34
2023-05-01T00:30:35.865Z,100559.81
2023-05-01T00:33:38.603Z,100561.75
2023-05-01T00:36:41.868Z,100562.13
2023-05-01T00:39:44.559Z,100556.44
2023-05-01T00:42:47.607Z,100553.56
2023-05-01T00:45:50.787Z,100560.50
2023-05-01T00:48:54.238Z,100552.56
2023-05-01T00:51:58.888Z,100551.50
2023-05-01T00:55:02.338Z,100554.12
2023-05-01T00:58:05.232Z,100558.03
2023-05-01T01:01:11.502Z,100559.19
2023-05-01T01:04:14.418Z,100557.19
2023-05-01T01:08:02.635Z,100561.44
2023-05-01T01:11:35.195Z,100553.19
2023-05-01T01:14:50.583Z,100558.22
2023-05-01T01:18:12.817Z,100546.69
2023-05-01T01:21:28.307Z,100565.22
2023-05-01T01:25:01.152Z,100564.44
2023-05-01T01:28:41.824Z,100561.44
2023-05-01T01:32:23.120Z,100567.09
2023-05-01T01:35:27.932Z,100574.50
2023-05-01T01:38:40.638Z,100569.00
2023-05-01T01:41:50.709Z,100573.13
2023-05-01T01:44:56.241Z,100570.62
2023-05-01T01:48:01.367Z,100571.66
2023-05-01T01:51:10.621Z,100564.66
2023-05-01T01:54:18.689Z,100565.00
2023-05-01T01:57:23.989Z,100565.56
2023-05-01T02:00:29.214Z,100556.59
2023-05-01T02:03:33.852Z,100558.19
2023-05-01T02:06:38.434Z,100561.63
2023-05-01T02:09:43.169Z,100565.22
2023-05-01T02:12:48.499Z,100559.81
2023-05-01T02:15:53.194Z,100553.81
2023-05-01T02:18:57.359Z,100562.91
2023-05-01T02:22:03.081Z,100564.03
2023-05-01T02:25:13.145Z,100563.66
2023-05-01T02:28:22.659Z,100561.38
2023-05-01T02:31:25.874Z,100555.72
2023-05-01T02:34:28.884Z,100550.31
2023-05-01T02:37:33.378Z,100560.81
2023-05-01T02:40:39.964Z,100556.78
2023-05-01T02:43:45.961Z,100559.06
2023-05-01T02:46:50.772Z,100556.06
2023-05-01T02:49:55.380Z,100566.91
2023-05-01T02:52:59.971Z,100556.78
2023-05-01T02:56:05.295Z,100565.75
2023-05-01T02:59:08.019Z,100559.88
2023-05-01T03:02:11.002Z,100563.56
2023-05-01T03:05:14.100Z,100567.97
2023-05-01T03:08:17.428Z,100575.72
2023-05-01T03:11:21.426Z,100568.31
2023-05-01T03:14:24.488Z,100573.63
2023-05-01T03:17:27.707Z,100573.88
2023-05-01T03:20:31.009Z,100573.75
2023-05-01T03:23:34.086Z,100568.22
2023-05-01T03:26:38.558Z,100578.78
2023-05-01T03:29:41.435Z,100570.66
2023-05-01T03:32:44.613Z,100573.00
2023-05-01T03:35:48.267Z,100569.41
2023-05-01T03:38:51.843Z,100572.75
2023-05-01T03:41:59.207Z,100571.12
2023-05-01T03:45:02.550Z,100572.91
2023-05-01T03:48:06.164Z,100572.13
2023-05-01T03:51:09.803Z,100573.75
2023-05-01T03:54:13.053Z,100564.53
2023-05-01T03:57:17.476Z,100563.75
2023-05-01T04:00:20.970Z,100565.44
2023-05-01T04:03:24.216Z,100562.41
2023-05-01T04:06:27.320Z,100564.56
2023-05-01T04:09:30.514Z,100565.53
2023-05-01T04:12:33.238Z,100565.44
2023-05-01T04:15:36.789Z,100570.94
2023-05-01T04:18:40.086Z,100574.25
2023-05-01T04:21:43.962Z,100568.87
2023-05-01T04:24:47.046Z,100587.09
2023-05-01T04:27:50.167Z,100577.31
2023-05-01T04:30:52.892Z,100574.91
2023-05-01T04:33:56.204Z,100579.37
2023-05-01T04:36:59.074Z,100581.25
2023-05-01T04:40:02.354Z,100578.41
2023-05-01T04:43:05.559Z,100587.69
2023-05-01T04:46:08.783Z,100585.59
2023-05-01T04:49:11.812Z,100591.62
2023-05-01T04:52:14.811Z,100597.13
2023-05-01T04:55:18.801Z,100598.34
2023-05-01T04:58:22.840Z,100603.00
2023-05-01T05:01:26.418Z,100605.19
2023-05-01T05:04:30.288Z,100599.37
2023-05-01T05:07:33.086Z,100594.66
2023-05-01T05:10:38.551Z,100590.44
2023-05-01T05:13:42.551Z,100593.47
2023-05-01T05:16:46.173Z,100583.00
2023-05-01T05:19:49.471Z,100590.34
2023-05-01T05:22:52.938Z,100594.50
2023-05-01T05:25:56.302Z,100592.22
2023-05-01T05:28:59.560Z,100588.75
2023-05-01T05:32:02.940Z,100582.75
2023-05-01T05:35:06.686Z,100590.75
2023-05-01T05:38:09.471Z,100604.34
2023-05-01T05:41:12.728Z,100597.16
2023-05-01T05:44:15.392Z,100600.75
2023-05-01T05:47:18.608Z,100599.06
2023-05-01T05:50:21.752Z,100599.84
2023-05-01T05:53:26.129Z,100596.25
2023-05-01T05:56:29.388Z,100603.88
2023-05-01T05:59:32.718Z,100595.50
2023-05-01T06:02:35.493Z,100603.88
2023-05-01T06:05:38.824Z,100598.66
2023-05-01T06:08:41.641Z,100596.13
2023-05-01T06:11:46.319Z,100609.87
2023-05-01T06:14:49.325Z,100601.06
2023-05-01T06:17:52.724Z,100604.19
2023-05-01T06:20:55.920Z,100609.31
2023-05-01T06:23:59.015Z,100624.13
2023-05-01T06:27:02.378Z,100611.72
2023-05-01T06:30:06.943Z,100609.81
2023-05-01T06:33:10.588Z,100617.91
2023-05-01T06:36:14.088Z,100616.16
2023-05-01T06:39:16.754Z,100613.91
2023-05-01T06:42:21.725Z,100620.25
2023-05-01T06:45:24.372Z,100621.78
2023-05-01T06:48:27.413Z,100631.75
2023-05-01T06:51:31.650Z,100632.00
2023-05-01T06:54:35.035Z,100621.13
2023-05-01T06:57:40.272Z,100625.66
2023-05-01T07:00:43.367Z,100625.38
2023-05-01T07:03:46.616Z,100625.59
2023-05-01T07:06:50.521Z,100624.44
2023-05-01T07:09:55.537Z,100628.38
2023-05-01T07:13:00.739Z,100625.28
2023-05-01T07:16:03.438Z,100630.19
2023-05-01T07:19:06.647Z,100637.50
2023-05-01T07:22:09.357Z,100631.44
2023-05-01T07:25:12.436Z,100624.09
2023-05-01T07:28:15.850Z,100621.34
2023-05-01T07:31:19.255Z,100614.22
2023-05-01T07:34:21.973Z,100621.69
2023-05-01T07:37:25.235Z,100615.16
2023-05-01T07:40:27.942Z,100621.22
2023-05-01T07:43:30.869Z,100612.50
2023-05-01T07:46:37.257Z,100612.31
2023-05-01T07:49:40.633Z,100611.09
2023-05-01T07:52:43.358Z,100609.41
2023-05-01T07:55:46.366Z,100612.63
2023-05-01T07:58:49.181Z,100623.09
2023-05-01T08:01:52.428Z,100615.19
2023-05-01T08:04:55.612Z,100611.38
2023-05-01T08:07:58.648Z,100614.25
2023-05-01T08:11:02.488Z,100612.59
2023-05-01T08:14:05.963Z,100607.16
2023-05-01T08:17:08.927Z,100619.38
2023-05-01T08:20:13.090Z,100616.69
2023-05-01T08:23:17.151Z,100618.19
2023-05-01T08:26:22.341Z,100621.53
2023-05-01T08:29:25.638Z,100623.44
2023-05-01T08:32:28.299Z,100621.06
2023-05-01T08:35:31.635Z,100618.09
2023-05-01T08:38:34.684Z,100620.19
2023-05-01T08:41:38.420Z,100611.97
2023-05-01T08:44:41.497Z,100616.59
2023-05-01T08:47:45.123Z,100608.88
2023-05-01T08:50:48.202Z,100612.22
2023-05-01T08:53:52.973Z,100614.69
2023-05-01T08:56:58.458Z,100616.97
2023-05-01T09:00:04.695Z,100617.09
2023-05-01T09:03:08.980Z,100613.56
2023-05-01T09:06:12.634Z,100601.69
2023-05-01T09:09:15.976Z,100608.19
2023-05-01T09:12:26.719Z,100608.53
2023-05-01T09:15:30.884Z,100606.00
2023-05-01T09:18:35.333Z,100592.69
2023-05-01T09:21:38.305Z,100583.19
2023-05-01T09:24:42.250Z,100597.78
2023-05-01T09:27:48.836Z,100590.81
2023-05-01T09:30:51.725Z,100594.06
2023-05-01T09:33:57.831Z,100584.28
2023-05-01T09:37:00.925Z,100578.66
2023-05-01T09:40:10.296Z,100577.59
2023-05-01T09:43:13.535Z,100583.41
2023-05-01T09:46:16.447Z,100581.41
2023-05-01T09:49:19.666Z,100579.75
2023-05-01T09:52:22.377Z,100570.00
2023-05-01T09:55:26.039Z,100566.06
2023-05-01T09:58:29.350Z,100571.53
2023-05-01T10:01:43.393Z,100560.66
2023-05-01T10:04:46.778Z,100561.03
2023-05-01T10:08:01.284Z,100563.78
2023-05-01T10:11:07.949Z,100560.59
2023-05-01T10:14:11.324Z,100557.56
2023-05-01T10:17:20.095Z,100555.53
2023-05-01T10:20:22.791Z,100559.94
2023-05-01T10:23:27.231Z,100558.94
2023-05-01T10:26:33.210Z,100556.81
2023-05-01T10:29:39.922Z,100541.16
2023-05-01T10:32:44.207Z,100544.03
2023-05-01T10:35:56.039Z,100545.84
2023-05-01T10:38:59.323Z,100543.50
2023-05-01T10:42:14.890Z,100532.94
2023-05-01T10:45:30.926Z,100525.28
2023-05-01T10:48:41.275Z,100530.19
2023-05-01T10:52:00.101Z,100523.38
2023-05-01T10:55:39.563Z,100527.38
2023-05-01T10:58:44.163Z,100519.19
2023-05-01T11:01:49.034Z,100515.97
2023-05-01T11:04:54.169Z,100516.38
2023-05-01T11:08:32.077Z,100510.09
2023-05-01T11:11:34.941Z,100508.66
2023-05-01T11:15:06.008Z,100500.94
2023-05-01T11:18:10.276Z,100498.88
2023-05-01T11:21:15.144Z,100503.38
2023-05-01T11:24:19.145Z,100496.34
2023-05-01T11:27:22.900Z,100496.72
2023-05-01T11:30:26.357Z,100486.88
2023-05-01T11:33:29.627Z,100481.19
2023-05-01T11:36:49.484Z,100485.25
2023-05-01T11:39:53.880Z,100476.97
2023-05-01T11:43:07.403Z,100477.09
2023-05-01T11:46:12.377Z,100480.41
2023-05-01T11:49:15.193Z,100473.81
2023-05-01T11:52:18.256Z,100459.34
2023-05-01T11:55:22.070Z,100463.72
2023-05-01T11:58:33.745Z,100460.50
2023-05-01T12:01:39.283Z,100456.66
2023-05-01T12:04:42.921Z,100454.28
2023-05-01T12:07:46.165Z,100454.37
2023-05-01T12:10:56.357Z,100452.19
2023-05-01T12:13:59.325Z,100459.66
2023-05-01T12:17:04.342Z,100448.91
2023-05-01T12:20:08.141Z,100439.22
2023-05-01T12:23:12.920Z,100440.84
2023-05-01T12:26:19.693Z,100441.38
2023-05-01T12:29:22.830Z,100435.66
2023-05-01T12:32:31.511Z,100420.25
2023-05-01T12:35:35.528Z,100411.25
2023-05-01T12:38:39.294Z,100426.13
2023-05-01T12:41:42.383Z,100416.81
2023-05-01T12:44:46.208Z,100419.84
2023-05-01T12:47:49.451Z,100412.97
2023-05-01T12:50:55.356Z,100404.47
2023-05-01T12:53:59.245Z,100395.63
2023-05-01T12:57:18.194Z,100392.94
2023-05-01T13:00:22.000Z,100398.31
2023-05-01T13:03:29.528Z,100386.41
2023-05-01T13:06:36.191Z,100378.12
2023-05-01T13:09:39.573Z,100381.47
2023-05-01T13:12:46.471Z,100383.25
2023-05-01T13:15:49.627Z,100375.06
2023-05-01T13:18:53.139Z,100368.78
2023-05-01T13:21:57.923Z,100366.59
2023-05-01T13:25:03.303Z,100368.31
2023-05-01T13:28:07.112Z,100371.78
2023-05-01T13:31:15.321Z,100366.31
2023-05-01T13:34:27.844Z,100364.19
2023-05-01T13:37:30.817Z,100359.72
2023-05-01T13:40:34.539Z,100364.12
2023-05-01T13:43:39.343Z,100360.53
2023-05-01T13:46:45.658Z,100361.19
2023-05-01T13:49:49.434Z,100351.91
2023-05-01T13:52:52.288Z,100342.22
2023-05-01T13:55:55.641Z,100337.56
2023-05-01T13:59:01.038Z,100338.81
2023-05-01T14:02:40.451Z,100338.69
2023-05-01T14:05:43.681Z,100337.19
2023-05-01T14:08:48.501Z,100331.06
2023-05-01T14:11:51.760Z,100332.97
2023-05-01T14:14:54.832Z,100338.41
2023-05-01T14:18:01.243Z,100335.53
2023-05-01T14:21:04.361Z,100333.34
2023-05-01T14:24:09.324Z,100331.53
2023-05-01T14:27:14.910Z,100325.34
2023-05-01T14:30:38.668Z,100314.28
2023-05-01T14:33:44.739Z,100305.37
2023-05-01T14:36:47.777Z,100306.44
2023-05-01T14:39:50.668Z,100302.25
2023-05-01T14:42:58.143Z,100302.72
2023-05-01T14:46:01.666Z,100305.63
2023-05-01T14:49:05.350Z,100301.09
2023-05-01T14:52:09.437Z,100300.97
2023-05-01T14:55:13.033Z,100289.88
2023-05-01T14:58:15.760Z,100293.00
2023-05-01T15:01:19.536Z,100287.41
2023-05-01T15:04:22.599Z,100287.66
2023-05-01T15:07:25.853Z,100284.59
2023-05-01T15:10:29.180Z,100287.19
2023-05-01T15:13:32.132Z,100281.69
2023-05-01T15:16:35.244Z,100290.06
2023-05-01T15:19:38.350Z,100287.81
2023-05-01T15:22:41.475Z,100279.50
2023-05-01T15:25:44.723Z,100288.28
2023-05-01T15:28:47.357Z,100272.97
2023-05-01T15:31:58.277Z,100280.22
2023-05-01T15:35:07.920Z,100277.84
2023-05-01T15:38:10.952Z,100275.00
2023-05-01T15:41:13.695Z,100274.37
2023-05-01T15:44:17.108Z,100279.72
2023-05-01T15:47:19.705Z,100282.84
2023-05-01T15:50:23.915Z,100278.41
2023-05-01T15:53:26.623Z,100279.62
2023-05-01T15:56:33.876Z,100278.78
2023-05-01T15:59:40.411Z,100278.03
2023-05-01T16:02:44.822Z,100268.44
2023-05-01T16:05:48.631Z,100275.50
2023-05-01T16:08:51.870Z,100269.50
2023-05-01T16:11:54.764Z,100264.03
2023-05-01T16:14:57.568Z,100269.84
2023-05-01T16:18:04.044Z,100262.53
2023-05-01T16:21:07.562Z,100266.78
2023-05-01T16:24:11.255Z,100264.63
2023-05-01T16:27:14.431Z,100259.28
2023-05-01T16:30:17.615Z,100265.84
2023-05-01T16:33:21.347Z,100256.25
2023-05-01T16:36:24.797Z,100255.38
2023-05-01T16:39:27.556Z,100264.09
2023-05-01T16:42:30.596Z,100259.59
2023-05-01T16:45:33.414Z,100261.72
2023-05-01T16:48:36.881Z,100264.34
2023-05-01T16:51:43.885Z,100267.75
2023-05-01T16:54:46.931Z,100266.34
2023-05-01T16:57:50.972Z,100273.91
2023-05-01T17:00:55.171Z,100269.41
2023-05-01T17:03:58.629Z,100271.81
2023-05-01T17:07:01.884Z,100279.53
2023-05-01T17:10:05.091Z,100272.97
2023-05-01T17:13:08.423Z,100275.22
2023-05-01T17:16:11.454Z,100274.97
2023-05-01T17:19:14.590Z,100279.59
2023-05-01T17:22:17.669Z,100276.06
2023-05-01T17:25:21.034Z,100272.28
2023-05-01T17:28:24.494Z,100273.69
2023-05-01T17:31:27.765Z,100274.25
2023-05-01T17:34:31.172Z,100270.00
2023-05-01T17:37:40.070Z,100271.44
2023-05-01T17:40:43.007Z,100266.38
2023-05-01T17:43:46.607Z,100263.31
2023-05-01T17:46:49.830Z,100269.03
2023-05-01T17:49:54.736Z,100266.84
2023-05-01T17:52:58.095Z,100263.00
2023-05-01T17:56:02.186Z,100264.72
2023-05-01T17:59:04.993Z,100264.16
2023-05-01T18:02:08.681Z,100263.97
2023-05-01T18:05:12.364Z,100264.50
2023-05-01T18:08:15.190Z,100267.44
2023-05-01T18:11:18.776Z,100257.59
2023-05-01T18:14:22.636Z,100265.72
2023-05-01T18:17:26.759Z,100261.78
2023-05-01T18:20:30.466Z,100273.09
2023-05-01T18:23:36.017Z,100267.91
2023-05-01T18:26:39.100Z,100269.88
2023-05-01T18:29:42.823Z,100267.91
2023-05-01T18:32:48.862Z,100269.09
2023-05-01T18:35:52.957Z,100282.88
2023-05-01T18:38:57.437Z,100286.53
2023-05-01T18:42:01.986Z,100284.50
2023-05-01T18:45:05.922Z,100289.34
2023-05-01T18:48:10.512Z,100296.47
2023-05-01T18:51:15.329Z,100299.38
2023-05-01T18:54:20.741Z,100295.47
2023-05-01T18:57:24.813Z,100294.34
2023-05-01T19:00:30.009Z,100292.03
2023-05-01T19:03:34.229Z,100297.22
2023-05-01T19:06:41.278Z,100303.31
2023-05-01T19:09:44.809Z,100296.91
2023-05-01T19:12:52.254Z,100299.88
2023-05-01T19:15:56.104Z,100300.03
2023-05-01T19:19:00.122Z,100295.59
2023-05-01T19:22:03.243Z,100295.59
2023-05-01T19:25:07.103Z,100287.59
2023-05-01T19:28:13.228Z,100293.72
2023-05-01T19:31:19.245Z,100290.19
2023-05-01T19:34:22.533Z,100294.97
2023-05-01T19:37:29.528Z,100300.22
2023-05-01T19:40:34.318Z,100290.59
2023-05-01T19:43:38.222Z,100289.38
2023-05-01T19:46:41.672Z,100305.44
2023-05-01T19:49:47.151Z,100306.31
2023-05-01T19:52:51.968Z,100309.50
2023-05-01T19:55:56.729Z,100303.97
2023-05-01T19:58:59.975Z,100302.81
2023-05-01T20:02:06.047Z,100305.22
2023-05-01T20:05:11.383Z,100317.19
2023-05-01T20:08:14.949Z,100314.41
2023-05-01T20:11:20.359Z,100305.25
2023-05-01T20:14:24.485Z,100304.06
2023-05-01T20:17:28.087Z,100309.22
2023-05-01T20:20:34.583Z,100306.81
2023-05-01T20:23:38.163Z,100296.09
2023-05-01T20:26:41.778Z,100296.88
2023-05-01T20:29:44.676Z,100297.28
2023-05-01T20:32:48.118Z,100304.47
2023-05-01T20:35:53.323Z,100298.88
2023-05-01T20:38:58.182Z,100296.09
2023-05-01T20:42:02.641Z,100294.13
2023-05-01T20:45:09.626Z,100296.91
2023-05-01T20:48:13.193Z,100298.91
2023-05-01T20:51:16.391Z,100295.31
2023-05-01T20:54:19.532Z,100298.50
2023-05-01T20:57:22.443Z,100304.87
2023-05-01T21:00:25.962Z,100304.06
2023-05-01T21:03:29.281Z,100304.06
2023-05-01T21:06:33.607Z,100294.50
2023-05-01T21:09:37.351Z,100294.50
2023-05-01T21:12:41.969Z,100290.53
2023-05-01T21:15:46.180Z,100295.31
2023-05-01T21:18:50.034Z,100298.09
2023-05-01T21:21:55.012Z,100298.47
2023-05-01T21:25:00.284Z,100310.06
2023-05-01T21:28:05.644Z,100305.69
2023-05-01T21:31:12.361Z,100314.44
2023-05-01T21:34:18.752Z,100310.84
2023-05-01T21:37:21.859Z,100304.84
2023-05-01T21:40:25.989Z,100315.63
2023-05-01T21:43:32.872Z,100310.44
2023-05-01T21:46:37.381Z,100317.63
2023-05-01T21:49:41.206Z,100319.22
2023-05-01T21:52:45.748Z,100325.19
2023-05-01T21:55:48.987Z,100320.84
2023-05-01T21:58:52.038Z,100324.41
2023-05-01T22:01:55.060Z,100320.03
2023-05-01T22:04:58.250Z,100332.78
2023-05-01T22:08:00.921Z,100329.59
2023-05-01T22:11:05.026Z,100324.78
2023-05-01T22:14:09.823Z,100330.38
2023-05-01T22:17:13.141Z,100325.59
2023-05-01T22:20:16.417Z,100328.37
2023-05-01T22:23:19.455Z,100330.41
2023-05-01T22:26:22.151Z,100329.19
2023-05-01T22:29:25.121Z,100335.19
2023-05-01T22:32:28.430Z,100328.81
2023-05-01T22:35:31.824Z,100327.22
2023-05-01T22:38:34.491Z,100332.75
2023-05-01T22:41:37.655Z,100324.69
2023-05-01T22:44:40.356Z,100327.44
2023-05-01T22:47:43.484Z,100322.97
2023-05-01T22:50:46.472Z,100316.53
2023-05-01T22:53:49.835Z,100318.06
2023-05-01T22:56:52.579Z,100320.91
2023-05-01T22:59:55.543Z,100311.69
2023-05-01T23:02:59.982Z,100310.88
2023-05-01T23:06:03.294Z,100318.37
2023-05-01T23:09:06.538Z,100306.38
2023-05-01T23:12:16.869Z,100313.16
2023-05-01T23:15:24.192Z,100303.53
2023-05-01T23:18:32.129Z,100305.56
2023-05-01T23:21:34.719Z,100313.00
2023-05-01T23:24:44.879Z,100316.16
2023-05-01T23:27:51.093Z,100314.13
2023-05-01T23:30:56.821Z,100316.47
2023-05-01T23:34:02.630Z,100313.00
2023-05-01T23:37:06.687Z,100312.47
2023-05-01T23:40:10.034Z,100318.37
2023-05-01T23:43:13.732Z,100317.41
2023-05-01T23:46:16.751Z,100310.06
2023-05-01T23:49:19.807Z,100307.31
2023-05-01T23:52:22.740Z,100298.81
2023-05-01T23:55:26.043Z,100308.31
2023-05-01T23:58:28.745Z,100309.75
